createdAt,value
2018-08-17T00:01:19.042Z,100591.18
2018-08-17T00:03:53.698Z,100596.31
2018-08-17T00:06:27.191Z,100603.05
2018-08-17T00:09:00.626Z,100610.36
2018-08-17T00:11:34.207Z,100612.24
2018-08-17T00:14:07.784Z,100634.89
2018-08-17T00:16:42.047Z,100651.59
2018-08-17T00:19:15.636Z,100672.59
2018-08-17T00:21:49.211Z,100702.34
2018-08-17T00:24:22.787Z,100707.04
2018-08-17T00:26:56.478Z,100701.72
2018-08-17T00:29:31.411Z,100682.94
2018-08-17T00:32:05.021Z,100677.84
2018-08-17T00:34:38.717Z,100684.30
2018-08-17T00:37:12.341Z,100687.28
2018-08-17T00:39:45.809Z,100710.97
2018-08-17T00:42:19.115Z,100724.97
2018-08-17T00:44:52.117Z,100734.38
2018-08-17T00:47:24.968Z,100741.34
2018-08-17T00:49:57.970Z,100732.95
2018-08-17T00:52:30.912Z,100734.83
2018-08-17T00:55:03.736Z,100732.39
2018-08-17T00:57:37.685Z,100731.33
2018-08-17T01:00:10.912Z,100730.78
2018-08-17T01:02:43.770Z,100728.34
2018-08-17T01:05:16.730Z,100714.89
2018-08-17T01:07:49.737Z,100728.89
2018-08-17T01:10:22.824Z,100722.98
2018-08-17T01:12:56.501Z,100726.73
2018-08-17T01:15:31.431Z,100736.70
2018-08-17T01:18:04.223Z,100735.91
2018-08-17T01:20:37.101Z,100742.91
2018-08-17T01:23:10.280Z,100742.89
2018-08-17T01:25:43.128Z,100743.43
2018-08-17T01:28:16.028Z,100749.36
2018-08-17T01:30:49.042Z,100738.59
2018-08-17T01:33:21.976Z,100737.23
2018-08-17T01:35:54.859Z,100732.95
2018-08-17T01:38:27.882Z,100736.17
2018-08-17T01:41:01.054Z,100736.70
2018-08-17T01:43:34.221Z,100735.33
2018-08-17T01:46:07.242Z,100730.47
2018-08-17T01:48:40.201Z,100730.98
2018-08-17T01:51:13.102Z,100728.02
2018-08-17T01:53:45.992Z,100732.30
2018-08-17T01:56:19.488Z,100734.98
2018-08-17T01:58:52.570Z,100729.58
2018-08-17T02:01:26.198Z,100727.41
2018-08-17T02:03:59.090Z,100728.49
2018-08-17T02:06:32.070Z,100734.16
2018-08-17T02:09:05.169Z,100731.47
2018-08-17T02:11:38.096Z,100725.80
2018-08-17T02:14:11.069Z,100729.84
2018-08-17T02:16:43.983Z,100725.78
2018-08-17T02:19:16.882Z,100719.83
2018-08-17T02:21:49.861Z,100720.34
2018-08-17T02:24:22.931Z,100717.09
2018-08-17T02:26:57.040Z,100707.64
2018-08-17T02:29:29.968Z,100705.20
2018-08-17T02:32:03.790Z,100700.63
2018-08-17T02:34:36.721Z,100697.36
2018-08-17T02:37:10.259Z,100691.98
2018-08-17T02:39:43.356Z,100692.21
2018-08-17T02:42:17.416Z,100694.64
2018-08-17T02:44:51.000Z,100692.45
2018-08-17T02:47:24.578Z,100690.79
2018-08-17T02:49:58.041Z,100687.55
2018-08-17T02:52:31.593Z,100687.53
2018-08-17T02:55:06.605Z,100696.16
2018-08-17T02:57:40.270Z,100706.12
2018-08-17T03:00:13.918Z,100706.13
2018-08-17T03:02:47.119Z,100706.66
2018-08-17T03:05:20.088Z,100704.77
2018-08-17T03:07:52.958Z,100697.72
2018-08-17T03:10:25.847Z,100698.47
2018-08-17T03:12:59.526Z,100690.61
2018-08-17T03:15:32.536Z,100690.58
2018-08-17T03:18:05.495Z,100696.26
2018-08-17T03:20:39.754Z,100689.52
2018-08-17T03:23:12.667Z,100681.44
2018-08-17T03:25:45.620Z,100680.92
2018-08-17T03:28:18.654Z,100681.78
2018-08-17T03:30:51.734Z,100683.92
2018-08-17T03:33:24.862Z,100684.70
2018-08-17T03:35:57.882Z,100692.76
2018-08-17T03:38:30.886Z,100693.30
2018-08-17T03:41:03.942Z,100696.26
2018-08-17T03:43:36.889Z,100695.95
2018-08-17T03:46:09.783Z,100694.31
2018-08-17T03:48:42.640Z,100691.91
2018-08-17T03:51:15.581Z,100687.03
2018-08-17T03:53:48.618Z,100679.48
2018-08-17T03:56:21.394Z,100678.94
2018-08-17T03:58:54.301Z,100669.70
2018-08-17T04:01:27.373Z,100673.08
2018-08-17T04:04:00.748Z,100664.15
2018-08-17T04:06:33.654Z,100657.27
2018-08-17T04:09:07.369Z,100655.23
2018-08-17T04:11:40.383Z,100647.03
2018-08-17T04:14:13.234Z,100649.31
2018-08-17T04:16:46.372Z,100637.02
2018-08-17T04:19:19.267Z,100633.91
2018-08-17T04:21:52.218Z,100626.71
2018-08-17T04:24:25.189Z,100622.69
2018-08-17T04:26:58.047Z,100625.92
2018-08-17T04:29:30.864Z,100615.66
2018-08-17T04:32:03.813Z,100618.13
2018-08-17T04:34:36.832Z,100622.19
2018-08-17T04:37:09.819Z,100614.48
2018-08-17T04:39:43.277Z,100605.06
2018-08-17T04:42:16.168Z,100600.08
2018-08-17T04:44:49.207Z,100596.56
2018-08-17T04:47:22.280Z,100579.23
2018-08-17T04:49:55.184Z,100573.00
2018-08-17T04:52:28.211Z,100569.77
2018-08-17T04:55:01.180Z,100560.48
2018-08-17T04:57:34.279Z,100563.19
2018-08-17T05:00:08.647Z,100551.70
2018-08-17T05:02:43.237Z,100547.48
2018-08-17T05:05:16.297Z,100542.30
2018-08-17T05:07:49.380Z,100539.19
2018-08-17T05:10:22.409Z,100537.70
2018-08-17T05:12:55.434Z,100532.12
2018-08-17T05:15:29.540Z,100532.36
2018-08-17T05:18:02.728Z,100539.02
2018-08-17T05:20:35.604Z,100526.48
2018-08-17T05:23:08.560Z,100515.25
2018-08-17T05:25:41.484Z,100519.70
2018-08-17T05:28:15.735Z,100512.33
2018-08-17T05:30:49.309Z,100510.97
2018-08-17T05:33:22.295Z,100504.58
2018-08-17T05:35:55.324Z,100495.27
2018-08-17T05:38:28.411Z,100483.42
2018-08-17T05:41:01.360Z,100488.80
2018-08-17T05:43:34.800Z,100478.80
2018-08-17T05:46:07.650Z,100481.19
2018-08-17T05:48:40.497Z,100477.94
2018-08-17T05:51:13.581Z,100474.59
2018-08-17T05:53:48.280Z,100468.77
2018-08-17T05:56:21.232Z,100467.85
2018-08-17T05:58:54.190Z,100461.26
2018-08-17T06:01:27.165Z,100449.30
2018-08-17T06:04:00.081Z,100438.33
2018-08-17T06:06:33.023Z,100434.02
2018-08-17T06:09:06.825Z,100430.14
2018-08-17T06:11:40.004Z,100427.88
2018-08-17T06:14:13.918Z,100422.31
2018-08-17T06:16:46.910Z,100415.32
2018-08-17T06:19:19.826Z,100415.22
2018-08-17T06:21:53.112Z,100410.08
2018-08-17T06:24:26.038Z,100406.44
2018-08-17T06:26:59.111Z,100403.04
2018-08-17T06:29:31.941Z,100398.36
2018-08-17T06:32:04.851Z,100402.47
2018-08-17T06:34:37.763Z,100396.83
2018-08-17T06:37:11.415Z,100395.28
2018-08-17T06:39:44.423Z,100392.91
2018-08-17T06:42:17.430Z,100387.47
2018-08-17T06:44:51.168Z,100379.57
2018-08-17T06:47:24.916Z,100370.82
2018-08-17T06:49:57.968Z,100368.98
2018-08-17T06:52:30.891Z,100366.39
2018-08-17T06:57:59.911Z,100359.92
2018-08-17T07:00:34.150Z,100360.70
2018-08-17T07:03:07.299Z,100349.09
2018-08-17T07:05:40.282Z,100342.95
2018-08-17T07:08:13.145Z,100342.65
2018-08-17T07:10:46.233Z,100333.50
2018-08-17T07:13:19.214Z,100326.84
2018-08-17T07:15:52.146Z,100333.35
2018-08-17T07:18:25.108Z,100320.47
2018-08-17T07:20:58.005Z,100326.45
2018-08-17T07:23:30.993Z,100320.69
2018-08-17T07:26:03.972Z,100322.84
2018-08-17T07:28:36.809Z,100320.03
2018-08-17T07:31:09.661Z,100323.68
2018-08-17T07:33:42.754Z,100318.09
2018-08-17T07:36:15.805Z,100317.80
2018-08-17T07:38:49.933Z,100322.55
2018-08-17T07:41:22.932Z,100316.73
2018-08-17T07:43:55.860Z,100322.64
2018-08-17T07:46:30.453Z,100316.09
2018-08-17T07:49:03.372Z,100303.10
2018-08-17T07:51:36.261Z,100305.05
2018-08-17T07:54:09.289Z,100309.82
2018-08-17T07:56:42.253Z,100309.27
2018-08-17T07:59:15.133Z,100302.77
2018-08-17T08:01:47.979Z,100302.44
2018-08-17T08:04:20.869Z,100298.80
2018-08-17T08:06:53.801Z,100293.00
2018-08-17T08:09:26.706Z,100288.99
2018-08-17T08:11:59.626Z,100282.92
2018-08-17T08:14:32.507Z,100285.19
2018-08-17T08:17:05.515Z,100279.41
2018-08-17T08:19:38.381Z,100275.14
2018-08-17T08:22:11.239Z,100274.06
2018-08-17T08:24:44.296Z,100271.97
2018-08-17T08:27:17.260Z,100278.84
2018-08-17T08:29:50.179Z,100278.38
2018-08-17T08:32:23.091Z,100279.11
2018-08-17T08:34:55.897Z,100277.87
2018-08-17T08:37:28.724Z,100279.98
2018-08-17T08:40:01.724Z,100276.57
2018-08-17T08:42:34.819Z,100274.12
2018-08-17T08:45:08.171Z,100275.03
2018-08-17T08:47:45.436Z,100271.63
2018-08-17T08:50:19.247Z,100272.53
2018-08-17T08:52:52.426Z,100268.67
2018-08-17T08:55:25.349Z,100271.17
2018-08-17T08:57:58.446Z,100276.00
2018-08-17T09:00:31.399Z,100282.77
2018-08-17T09:03:04.243Z,100278.84
2018-08-17T09:05:37.299Z,100280.88
2018-08-17T09:08:10.524Z,100282.58
2018-08-17T09:10:43.458Z,100278.79
2018-08-17T09:13:16.414Z,100279.70
2018-08-17T09:15:49.253Z,100276.53
2018-08-17T09:18:22.165Z,100282.61
2018-08-17T09:20:55.063Z,100281.83
2018-08-17T09:23:27.930Z,100283.77
2018-08-17T09:26:00.700Z,100283.55
2018-08-17T09:28:33.598Z,100281.62
2018-08-17T09:31:06.561Z,100278.20
2018-08-17T09:33:39.666Z,100281.47
2018-08-17T09:36:13.487Z,100280.93
2018-08-17T09:38:47.379Z,100280.14
2018-08-17T09:41:20.302Z,100273.55
2018-08-17T09:43:53.132Z,100273.44
2018-08-17T09:46:26.605Z,100272.52
2018-08-17T09:48:59.546Z,100275.91
2018-08-17T09:51:32.875Z,100271.78
2018-08-17T09:54:05.718Z,100278.09
2018-08-17T09:56:38.924Z,100274.91
2018-08-17T09:59:12.165Z,100278.38
2018-08-17T10:01:49.111Z,100275.70
2018-08-17T10:04:25.996Z,100278.49
2018-08-17T10:07:03.915Z,100282.80
2018-08-17T10:09:40.782Z,100282.96
2018-08-17T10:12:13.715Z,100278.92
2018-08-17T10:14:46.648Z,100289.53
2018-08-17T10:17:19.655Z,100292.36
2018-08-17T10:19:52.547Z,100295.91
2018-08-17T10:22:25.416Z,100290.84
2018-08-17T10:25:12.859Z,100287.50
2018-08-17T10:27:45.974Z,100285.70
2018-08-17T10:30:19.589Z,100292.73
2018-08-17T10:32:57.441Z,100290.88
2018-08-17T10:35:36.094Z,100295.45
2018-08-17T10:38:10.525Z,100300.20
2018-08-17T10:40:43.637Z,100300.77
2018-08-17T10:43:16.503Z,100304.29
2018-08-17T10:45:49.389Z,100309.14
2018-08-17T10:48:22.629Z,100313.20
2018-08-17T10:50:59.073Z,100316.02
2018-08-17T10:53:38.950Z,100316.00
2018-08-17T10:56:11.886Z,100322.44
2018-08-17T10:58:44.700Z,100328.84
2018-08-17T11:01:17.788Z,100326.25
2018-08-17T11:03:50.647Z,100329.41
2018-08-17T11:06:24.126Z,100326.36
2018-08-17T11:08:59.087Z,100330.84
2018-08-17T11:11:34.595Z,100335.91
2018-08-17T11:14:07.661Z,100337.47
2018-08-17T11:16:40.819Z,100340.83
2018-08-17T11:19:13.777Z,100343.48
2018-08-17T11:21:46.747Z,100345.56
2018-08-17T11:24:19.689Z,100346.52
2018-08-17T11:26:52.560Z,100350.45
2018-08-17T11:29:25.522Z,100354.39
2018-08-17T11:31:58.416Z,100355.31
2018-08-17T11:34:31.331Z,100361.38
2018-08-17T11:37:04.354Z,100365.80
2018-08-17T11:39:37.233Z,100364.06
2018-08-17T11:42:10.230Z,100365.56
2018-08-17T11:44:43.076Z,100371.34
2018-08-17T11:47:16.019Z,100373.81
2018-08-17T11:49:49.792Z,100370.13
2018-08-17T11:52:22.765Z,100370.24
2018-08-17T11:54:55.700Z,100368.23
2018-08-17T11:57:28.677Z,100370.30
2018-08-17T12:00:01.660Z,100373.47
2018-08-17T12:02:34.569Z,100372.14
2018-08-17T12:05:07.709Z,100372.14
2018-08-17T12:07:40.963Z,100376.98
2018-08-17T12:10:13.810Z,100383.49
2018-08-17T12:12:49.481Z,100388.64
2018-08-17T12:15:24.654Z,100388.39
2018-08-17T12:17:58.924Z,100386.35
2018-08-17T12:20:33.758Z,100387.50
2018-08-17T12:23:08.898Z,100385.46
2018-08-17T12:25:48.463Z,100385.25
2018-08-17T12:28:21.789Z,100390.55
2018-08-17T12:30:55.671Z,100391.65
2018-08-17T12:33:30.345Z,100394.09
2018-08-17T12:36:04.453Z,100398.95
2018-08-17T12:38:37.714Z,100403.55
2018-08-17T12:41:12.010Z,100399.30
2018-08-17T12:43:46.931Z,100406.34
2018-08-17T12:46:20.768Z,100413.44
2018-08-17T12:48:54.504Z,100407.25
2018-08-17T12:51:28.305Z,100401.20
2018-08-17T12:54:02.848Z,100411.44
2018-08-17T12:56:35.670Z,100414.19
2018-08-17T12:59:09.850Z,100421.78
2018-08-17T13:01:43.491Z,100421.78
2018-08-17T13:04:17.604Z,100430.13
2018-08-17T13:06:51.124Z,100431.98
2018-08-17T13:09:25.033Z,100437.67
2018-08-17T13:11:59.949Z,100439.61
2018-08-17T13:14:33.310Z,100437.55
2018-08-17T13:17:08.446Z,100431.12
2018-08-17T13:19:41.734Z,100434.91
2018-08-17T13:22:16.826Z,100435.75
2018-08-17T13:24:50.952Z,100436.89
2018-08-17T13:27:24.378Z,100445.83
2018-08-17T13:29:58.100Z,100449.63
2018-08-17T13:32:31.331Z,100458.31
2018-08-17T13:35:04.867Z,100460.00
2018-08-17T13:37:39.042Z,100470.50
2018-08-17T13:40:13.288Z,100476.17
2018-08-17T13:42:47.110Z,100480.78
2018-08-17T13:45:22.426Z,100483.55
2018-08-17T13:47:56.532Z,100485.48
2018-08-17T13:50:29.553Z,100487.93
2018-08-17T13:53:02.619Z,100493.07
2018-08-17T13:55:35.518Z,100490.41
2018-08-17T13:58:09.204Z,100492.63
2018-08-17T14:00:42.114Z,100501.02
2018-08-17T14:03:16.178Z,100505.60
2018-08-17T14:05:49.102Z,100508.30
2018-08-17T14:08:22.049Z,100507.75
2018-08-17T14:10:55.120Z,100512.59
2018-08-17T14:13:28.226Z,100515.30
2018-08-17T14:16:01.152Z,100520.14
2018-08-17T14:18:34.114Z,100518.79
2018-08-17T14:21:07.040Z,100513.11
2018-08-17T14:23:39.841Z,100513.36
2018-08-17T14:26:12.789Z,100518.79
2018-08-17T14:28:45.759Z,100523.38
2018-08-17T14:31:18.767Z,100530.95
2018-08-17T14:33:51.722Z,100530.42
2018-08-17T14:36:25.306Z,100527.72
2018-08-17T14:38:58.307Z,100520.73
2018-08-17T14:41:31.197Z,100525.86
2018-08-17T14:44:04.093Z,100525.09
2018-08-17T14:46:37.000Z,100532.92
2018-08-17T14:49:09.958Z,100527.02
2018-08-17T14:51:44.048Z,100527.60
2018-08-17T14:54:18.147Z,100528.25
2018-08-17T14:56:51.853Z,100533.94
2018-08-17T14:59:25.626Z,100540.64
2018-08-17T15:02:00.512Z,100540.89
2018-08-17T15:04:34.479Z,100546.02
2018-08-17T15:07:08.703Z,100547.59
2018-08-17T15:09:42.494Z,100544.09
2018-08-17T15:12:17.023Z,100552.44
2018-08-17T15:14:50.889Z,100559.69
2018-08-17T15:17:25.184Z,100563.48
2018-08-17T15:19:59.206Z,100568.61
2018-08-17T15:22:33.581Z,100565.37
2018-08-17T15:25:07.117Z,100574.29
2018-08-17T15:27:40.886Z,100577.02
2018-08-17T15:30:14.955Z,100584.84
2018-08-17T15:32:47.972Z,100587.80
2018-08-17T15:35:21.249Z,100589.37
2018-08-17T15:37:55.784Z,100594.21
2018-08-17T15:40:28.823Z,100602.81
2018-08-17T15:43:08.777Z,100597.94
2018-08-17T15:45:43.306Z,100604.94
2018-08-17T15:48:18.159Z,100608.14
2018-08-17T15:50:54.152Z,100602.17
2018-08-17T15:53:29.430Z,100599.73
2018-08-17T15:56:02.866Z,100600.25
2018-08-17T15:58:38.785Z,100603.48
2018-08-17T16:01:16.986Z,100601.41
2018-08-17T16:03:53.384Z,100590.94
2018-08-17T16:06:28.362Z,100597.36
2018-08-17T16:09:05.160Z,100598.45
2018-08-17T16:11:39.161Z,100595.50
2018-08-17T16:14:14.667Z,100591.45
2018-08-17T16:16:48.869Z,100591.20
2018-08-17T16:19:25.895Z,100597.73
2018-08-17T16:21:58.874Z,100600.75
2018-08-17T16:24:33.758Z,100604.80
2018-08-17T16:27:07.347Z,100607.77
2018-08-17T16:29:40.576Z,100619.09
2018-08-17T16:32:13.900Z,100620.98
2018-08-17T16:34:46.976Z,100619.61
2018-08-17T16:37:20.027Z,100618.53
2018-08-17T16:39:56.728Z,100622.25
2018-08-17T16:42:33.847Z,100624.38
2018-08-17T16:45:07.843Z,100630.83
2018-08-17T16:47:40.791Z,100629.73
2018-08-17T16:50:13.993Z,100631.88
2018-08-17T16:52:47.105Z,100629.99
2018-08-17T16:55:19.991Z,100625.66
2018-08-17T16:57:52.828Z,100625.66
2018-08-17T17:00:25.753Z,100625.92
2018-08-17T17:02:58.784Z,100613.53
2018-08-17T17:05:31.811Z,100607.34
2018-08-17T17:08:04.775Z,100601.98
2018-08-17T17:10:37.959Z,100606.08
2018-08-17T17:13:11.065Z,100610.92
2018-08-17T17:15:45.228Z,100609.87
2018-08-17T17:18:18.156Z,100603.70
2018-08-17T17:20:51.071Z,100595.91
2018-08-17T17:23:24.324Z,100594.56
2018-08-17T17:25:57.425Z,100594.59
2018-08-17T17:28:35.454Z,100591.64
2018-08-17T17:31:08.457Z,100580.12
2018-08-17T17:33:41.416Z,100577.20
2018-08-17T17:36:14.966Z,100579.11
2018-08-17T17:38:48.473Z,100579.14
2018-08-17T17:41:21.688Z,100572.15
2018-08-17T17:43:54.692Z,100565.70
2018-08-17T17:46:27.566Z,100564.38
2018-08-17T17:49:00.471Z,100565.73
2018-08-17T17:51:33.303Z,100560.34
2018-08-17T17:54:06.769Z,100561.95
2018-08-17T17:56:39.780Z,100564.38
2018-08-17T17:59:17.598Z,100563.61
2018-08-17T18:01:50.605Z,100561.48
2018-08-17T18:04:23.665Z,100557.73
2018-08-17T18:06:56.556Z,100557.45
2018-08-17T18:09:29.438Z,100553.16
2018-08-17T18:12:02.473Z,100557.45
2018-08-17T18:14:36.102Z,100552.58
2018-08-17T18:17:09.062Z,100552.58
2018-08-17T18:19:42.064Z,100555.53
2018-08-17T18:22:27.622Z,100557.65
2018-08-17T18:25:06.620Z,100563.78
2018-08-17T18:27:39.494Z,100564.04
2018-08-17T18:30:12.478Z,100569.11
2018-08-17T18:32:46.440Z,100564.50
2018-08-17T18:35:19.513Z,100564.47
2018-08-17T18:37:52.502Z,100565.27
2018-08-17T18:40:25.508Z,100563.66
2018-08-17T18:42:58.392Z,100559.37
2018-08-17T18:45:31.366Z,100556.67
2018-08-17T18:48:04.298Z,100552.37
2018-08-17T18:50:37.350Z,100549.97
2018-08-17T18:53:10.273Z,100546.98
2018-08-17T18:55:43.339Z,100539.96
2018-08-17T18:58:16.260Z,100528.93
2018-08-17T19:00:49.175Z,100522.73
2018-08-17T19:03:23.052Z,100513.34
2018-08-17T19:05:55.987Z,100520.88
2018-08-17T19:08:28.885Z,100513.05
2018-08-17T19:11:01.869Z,100510.88
2018-08-17T19:13:34.849Z,100499.84
2018-08-17T19:16:07.793Z,100498.75
2018-08-17T19:18:40.656Z,100497.11
2018-08-17T19:21:16.227Z,100494.45
2018-08-17T19:23:49.078Z,100495.86
2018-08-17T19:26:22.135Z,100505.06
2018-08-17T19:28:56.589Z,100508.05
2018-08-17T19:31:29.571Z,100509.97
2018-08-17T19:34:02.537Z,100509.17
2018-08-17T19:36:35.538Z,100511.31
2018-08-17T19:39:09.471Z,100501.92
2018-08-17T19:41:43.492Z,100506.77
2018-08-17T19:44:16.696Z,100496.53
2018-08-17T19:46:49.800Z,100491.14
2018-08-17T19:49:22.895Z,100479.86
2018-08-17T19:51:55.926Z,100462.67
2018-08-17T19:54:28.965Z,100460.30
2018-08-17T19:57:03.323Z,100462.48
2018-08-17T19:59:36.414Z,100456.88
2018-08-17T20:02:09.518Z,100462.00
2018-08-17T20:07:13.502Z,100490.09
2018-08-17T20:09:49.098Z,100504.93
2018-08-17T20:12:23.100Z,100510.31
2018-08-17T20:14:56.082Z,100521.63
2018-08-17T20:17:29.173Z,100525.13
2018-08-17T20:20:02.312Z,100522.41
2018-08-17T20:22:35.714Z,100515.62
2018-08-17T20:25:16.462Z,100512.64
2018-08-17T20:27:49.669Z,100511.49
2018-08-17T20:30:24.014Z,100503.59
2018-08-17T20:32:57.086Z,100496.47
2018-08-17T20:35:31.472Z,100487.27
2018-08-17T20:38:04.622Z,100482.94
2018-08-17T20:40:37.844Z,100480.47
2018-08-17T20:43:11.090Z,100488.26
2018-08-17T20:45:44.131Z,100485.86
2018-08-17T20:48:17.254Z,100489.89
2018-08-17T20:50:50.357Z,100486.69
2018-08-17T20:53:24.384Z,100479.66
2018-08-17T20:55:57.876Z,100475.62
2018-08-17T20:58:30.965Z,100468.34
2018-08-17T21:01:04.222Z,100474.83
2018-08-17T21:03:37.335Z,100494.23
2018-08-17T21:06:10.486Z,100499.33
2018-08-17T21:08:43.689Z,100497.98
2018-08-17T21:11:16.850Z,100504.42
2018-08-17T21:13:49.973Z,100501.48
2018-08-17T21:16:23.069Z,100503.69
2018-08-17T21:18:57.173Z,100512.86
2018-08-17T21:21:30.347Z,100513.38
2018-08-17T21:24:03.752Z,100509.59
2018-08-17T21:26:37.444Z,100513.12
2018-08-17T21:29:10.562Z,100517.67
2018-08-17T21:31:43.593Z,100530.31
2018-08-17T21:34:16.814Z,100532.48
2018-08-17T21:36:50.141Z,100546.22
2018-08-17T21:39:23.515Z,100552.44
2018-08-17T21:41:56.509Z,100547.05
2018-08-17T21:44:29.384Z,100541.38
2018-08-17T21:47:07.130Z,100539.99
2018-08-17T21:49:39.930Z,100539.99
2018-08-17T21:52:16.578Z,100535.19
2018-08-17T21:54:49.505Z,100534.34
2018-08-17T21:57:22.413Z,100529.47
2018-08-17T21:59:55.290Z,100534.03
2018-08-17T22:02:28.282Z,100537.27
2018-08-17T22:05:01.320Z,100539.64
2018-08-17T22:07:36.121Z,100542.05
2018-08-17T22:10:09.524Z,100543.39
2018-08-17T22:12:42.548Z,100540.70
2018-08-17T22:15:15.896Z,100548.50
2018-08-17T22:17:48.861Z,100539.84
2018-08-17T22:20:21.874Z,100544.67
2018-08-17T22:22:55.205Z,100552.19
2018-08-17T22:25:28.316Z,100549.48
2018-08-17T22:28:01.238Z,100545.19
2018-08-17T22:30:34.129Z,100547.88
2018-08-17T22:33:07.207Z,100547.38
2018-08-17T22:35:40.234Z,100548.72
2018-08-17T22:38:13.236Z,100549.78
2018-08-17T22:40:46.283Z,100553.27
2018-08-17T22:43:19.171Z,100556.77
2018-08-17T22:45:52.581Z,100558.66
2018-08-17T22:48:25.655Z,100557.61
2018-08-17T22:50:58.589Z,100558.95
2018-08-17T22:53:31.495Z,100549.78
2018-08-17T22:56:04.497Z,100550.58
2018-08-17T22:58:41.501Z,100554.88
2018-08-17T23:01:14.877Z,100555.71
2018-08-17T23:03:53.044Z,100559.75
2018-08-17T23:06:27.808Z,100568.39
2018-08-17T23:09:01.473Z,100563.28
2018-08-17T23:11:38.209Z,100563.58
2018-08-17T23:14:16.749Z,100563.03
2018-08-17T23:16:50.801Z,100563.03
2018-08-17T23:19:23.797Z,100566.55
2018-08-17T23:21:56.785Z,100560.62
2018-08-17T23:24:29.656Z,100557.64
2018-08-17T23:27:02.748Z,100564.92
2018-08-17T23:29:35.704Z,100571.69
2018-08-17T23:32:09.056Z,100585.16
2018-08-17T23:34:42.303Z,100581.95
2018-08-17T23:37:15.510Z,100588.11
2018-08-17T23:39:49.032Z,100583.55
2018-08-17T23:42:22.546Z,100592.67
2018-08-17T23:44:56.038Z,100598.60
2018-08-17T23:47:29.742Z,100601.01
2018-08-17T23:50:03.402Z,100610.96
2018-08-17T23:52:37.941Z,100616.29
2018-08-17T23:57:50.475Z,100614.56
